Time;durP1;ratioP1;P1;durP2;ratioP2;P2;SDS_P1;SDS_P2;PMS_P1;PMS_P2;Temp;Humidity;BMP_temperature;BMP_pressure;BME280_temperature;BME280_humidity;BME280_pressure;Samples;Min_cycle;Max_cycle;Signal;HPM_P1;HPM_P2
2023/11/25 00:00:53;;;;;;;0.25;0.25;;;;;;;3.70;92.70;99747.19;4954877;28;20050;-72
2023/11/25 00:03:18;;;;;;;0.93;0.90;;;;;;;3.82;92.41;99749.09;4974404;28;20049;-72
2023/11/25 00:05:44;;;;;;;0.50;0.50;;;;;;;3.80;92.17;99749.41;4952951;28;20043;-71
2023/11/25 00:08:10;;;;;;;0.40;0.40;;;;;;;3.72;93.22;99742.31;4965765;28;20070;-72
2023/11/25 00:10:35;;;;;;;0.40;0.40;;;;;;;3.76;92.92;99745.88;4970094;28;20035;-73
2023/11/25 00:13:05;;;;;;;0.10;0.10;;;;;;;3.85;92.67;99751.88;4955980;28;20049;-73
2023/11/25 00:15:31;;;;;;;0.52;0.52;;;;;;;3.86;92.43;99756.09;4972266;28;20038;-73
2023/11/25 00:17:57;;;;;;;0.38;0.38;;;;;;;3.74;91.80;99741.97;4951266;28;20117;-73
2023/11/25 00:20:25;;;;;;;0.47;0.47;;;;;;;3.83;92.17;99758.63;4969656;28;20509;-73
2023/11/25 00:22:52;;;;;;;1.35;1.20;;;;;;;3.77;91.59;99767.94;4947932;28;20069;-73
2023/11/25 00:25:23;;;;;;;1.13;0.60;;;;;;;3.85;91.66;99759.88;4955473;28;20031;-73
2023/11/25 00:27:49;;;;;;;2.83;0.38;;;;;;;3.76;91.70;99763.72;4952893;28;20038;-72
2023/11/25 00:30:14;;;;;;;2.28;0.93;;;;;;;3.71;92.26;99758.63;4970825;28;20034;-73
2023/11/25 00:32:43;;;;;;;0.30;0.30;;;;;;;3.86;91.85;99756.09;4952602;28;20042;-73
2023/11/25 00:35:11;;;;;;;0.70;0.52;;;;;;;3.95;91.37;99761.31;4970411;28;20494;-73
2023/11/25 00:37:39;;;;;;;5.43;0.95;;;;;;;3.97;90.63;99761.75;4969080;28;20042;-73
2023/11/25 00:40:09;;;;;;;1.67;0.60;;;;;;;3.88;90.98;99753.88;4952054;28;20089;-73
2023/11/25 00:42:34;;;;;;;0.20;0.20;;;;;;;3.81;91.66;99750.19;4937893;29;20039;-72
2023/11/25 00:45:00;;;;;;;0.60;0.60;;;;;;;3.88;91.70;99739.78;4975420;28;20037;-73
2023/11/25 00:47:27;;;;;;;0.40;0.40;;;;;;;3.93;90.77;99747.56;4940690;28;20065;-73
2023/11/25 00:49:53;;;;;;;1.17;0.63;;;;;;;3.90;91.08;99735.69;4951658;28;20030;-73
2023/11/25 00:52:19;;;;;;;1.38;0.95;;;;;;;3.81;91.31;99748.31;4956486;28;20031;-73
2023/11/25 00:54:45;;;;;;;0.40;0.40;;;;;;;3.71;91.02;99743.44;4958459;28;20030;-73
2023/11/25 00:57:11;;;;;;;0.30;0.30;;;;;;;3.83;91.07;99755.97;4956465;28;20077;-73
2023/11/25 00:59:36;;;;;;;0.60;0.60;;;;;;;3.86;91.24;99764.06;4968168;28;20109;-72
2023/11/25 01:02:02;;;;;;;0.47;0.47;;;;;;;3.89;91.24;99765.31;4953296;28;20119;-73
2023/11/25 01:04:27;;;;;;;0.30;0.30;;;;;;;3.85;90.84;99761.75;4951988;28;20058;-73
2023/11/25 01:06:53;;;;;;;0.40;0.40;;;;;;;3.88;91.04;99766.41;4955690;28;20038;-73
2023/11/25 01:09:19;;;;;;;1.33;0.73;;;;;;;3.86;90.88;99771.28;4955062;28;20537;-73
2023/11/25 01:11:49;;;;;;;1.27;0.45;;;;;;;3.92;90.02;99772.63;4968743;28;20717;-72
2023/11/25 01:14:14;;;;;;;0.40;0.40;;;;;;;3.91;90.69;99776.41;4944621;28;20509;-73
2023/11/25 01:16:40;;;;;;;0.75;0.63;;;;;;;3.93;89.93;99771.53;4953745;28;20062;-73
2023/11/25 01:19:06;;;;;;;0.47;0.47;;;;;;;4.00;89.74;99777.06;4971603;28;20026;-73
2023/11/25 01:21:31;;;;;;;1.20;0.70;;;;;;;3.86;90.05;99781.94;4966822;28;20030;-72
2023/11/25 01:23:57;;;;;;;1.42;1.00;;;;;;;3.85;90.22;99759.09;4972023;28;20495;-73
2023/11/25 01:26:22;;;;;;;3.35;1.13;;;;;;;3.85;89.68;99762.53;4968209;28;20395;-73
2023/11/25 01:28:48;;;;;;;0.60;0.60;;;;;;;3.83;90.17;99763.97;4973540;28;20113;-72
2023/11/25 01:31:14;;;;;;;0.50;0.50;;;;;;;3.81;90.13;99756.31;4970943;28;20081;-73
2023/11/25 01:33:40;;;;;;;0.63;0.63;;;;;;;3.75;90.08;99768.28;4956020;28;20027;-73
2023/11/25 01:36:10;;;;;;;0.38;0.38;;;;;;;3.76;90.13;99769.03;4936869;28;20070;-73
2023/11/25 01:38:36;;;;;;;0.20;0.20;;;;;;;3.71;90.52;99770.06;4947631;28;20122;-73
2023/11/25 01:41:02;;;;;;;0.30;0.30;;;;;;;3.76;90.11;99771.69;4973899;28;20039;-73
2023/11/25 01:43:27;;;;;;;0.68;0.55;;;;;;;3.75;90.07;99772.81;4955022;28;20037;-73
2023/11/25 01:45:57;;;;;;;2.22;0.55;;;;;;;3.71;90.22;99769.25;4943327;28;20042;-72
2023/11/25 01:48:23;;;;;;;0.98;0.40;;;;;;;3.71;90.69;99764.72;4962547;28;20031;-72
2023/11/25 01:50:49;;;;;;;0.40;0.40;;;;;;;3.80;90.06;99769.94;4976172;28;20022;-72
2023/11/25 01:53:19;;;;;;;0.95;0.95;;;;;;;3.89;89.64;99762.63;4959360;28;20422;-73
2023/11/25 01:55:46;;;;;;;0.88;0.47;;;;;;;3.87;89.44;99757.63;4957216;28;20035;-72
2023/11/25 01:58:16;;;;;;;0.82;0.82;;;;;;;3.93;89.17;99764.28;4961277;28;20026;-73
2023/11/25 02:00:43;;;;;;;0.38;0.38;;;;;;;3.86;89.58;99765.94;4955939;28;20498;-73
2023/11/25 02:03:09;;;;;;;2.55;0.98;;;;;;;3.82;89.02;99763.19;4968033;28;20054;-73
2023/11/25 02:05:36;;;;;;;0.80;0.80;;;;;;;3.81;89.98;99763.50;4966708;28;20221;-73
2023/11/25 02:08:01;;;;;;;0.50;0.50;;;;;;;3.83;89.59;99761.31;4965669;28;20035;-73
2023/11/25 02:10:27;;;;;;;0.40;0.40;;;;;;;3.83;89.51;99762.09;4954951;28;20519;-73
2023/11/25 02:12:52;;;;;;;2.60;0.95;;;;;;;3.79;89.62;99766.50;4968978;28;20031;-73
2023/11/25 02:15:18;;;;;;;0.68;0.68;;;;;;;3.84;89.82;99758.31;4968631;28;20030;-72
2023/11/25 02:17:46;;;;;;;0.45;0.43;;;;;;;3.85;89.67;99759.09;4970382;28;20094;-73
2023/11/25 02:20:13;;;;;;;0.40;0.40;;;;;;;3.71;90.11;99753.28;4972320;28;20425;-73
2023/11/25 02:22:41;;;;;;;0.85;0.40;;;;;;;3.83;90.24;99754.09;4952479;28;20038;-73
2023/11/25 02:25:07;;;;;;;1.65;0.32;;;;;;;3.76;89.87;99753.06;4964503;28;20545;-73
2023/11/25 02:27:34;;;;;;;0.40;0.40;;;;;;;3.75;90.25;99749.66;4970193;28;20490;-73
2023/11/25 02:30:04;;;;;;;0.43;0.43;;;;;;;3.90;89.94;99753.53;4970084;28;20038;-73
2023/11/25 02:32:33;;;;;;;;;;;;;;;3.88;89.71;99750.41;4968039;28;20031;-72
2023/11/25 02:35:00;;;;;;;0.43;0.40;;;;;;;3.86;89.90;99753.41;4967281;28;19976;-73
2023/11/25 02:37:25;;;;;;;0.40;0.40;;;;;;;4.01;89.11;99742.09;4969428;28;20035;-73
2023/11/25 02:39:51;;;;;;;0.55;0.50;;;;;;;3.94;88.91;99741.09;4965352;28;20042;-73
2023/11/25 02:42:17;;;;;;;0.40;0.40;;;;;;;3.99;89.64;99746.97;4967371;28;20039;-73
2023/11/25 02:44:43;;;;;;;0.28;0.28;;;;;;;4.01;88.95;99750.09;4968988;28;20034;-73
2023/11/25 02:47:13;;;;;;;0.70;0.70;;;;;;;3.99;88.40;99740.91;4986975;28;20109;-73
2023/11/25 02:49:39;;;;;;;0.90;0.52;;;;;;;4.08;88.66;99733.56;4970808;28;20065;-72
2023/11/25 02:52:04;;;;;;;0.20;0.20;;;;;;;4.03;88.36;99731.91;4973400;28;20062;-73
2023/11/25 02:54:30;;;;;;;7.22;0.73;;;;;;;4.07;88.34;99730.13;4974058;28;20084;-73
2023/11/25 02:56:55;;;;;;;0.65;0.57;;;;;;;4.04;87.97;99727.34;4972980;28;20027;-72
2023/11/25 02:59:22;;;;;;;0.95;0.95;;;;;;;4.01;88.34;99722.69;4968829;28;20109;-72
2023/11/25 03:01:53;;;;;;;0.35;0.35;;;;;;;4.05;88.03;99715.56;4971620;28;20573;-72
2023/11/25 03:04:19;;;;;;;;;;;;;;;3.97;88.31;99717.25;4970640;28;20050;-72
2023/11/25 03:06:46;;;;;;;0.60;0.60;;;;;;;3.84;88.76;99709.59;4953832;28;19922;-72
2023/11/25 03:09:13;;;;;;;0.28;0.28;;;;;;;4.03;88.55;99712.47;4967541;28;20033;-71
2023/11/25 03:11:39;;;;;;;0.52;0.52;;;;;;;4.08;88.37;99715.72;4964926;28;20034;-71
2023/11/25 03:14:06;;;;;;;0.50;0.50;;;;;;;4.28;87.25;99716.66;4957566;28;20524;-72
2023/11/25 03:16:35;;;;;;;0.50;0.50;;;;;;;4.24;87.36;99715.81;4946277;28;20031;-72
2023/11/25 03:19:01;;;;;;;0.98;0.60;;;;;;;4.24;87.65;99723.78;4974249;28;20060;-72
2023/11/25 03:21:28;;;;;;;0.32;0.32;;;;;;;4.25;87.76;99714.69;4939170;28;20090;-72
2023/11/25 03:23:53;;;;;;;1.95;0.80;;;;;;;4.33;87.46;99725.22;4957465;28;20110;-72
2023/11/25 03:26:19;;;;;;;0.52;0.52;;;;;;;4.34;87.32;99715.31;4955233;28;20122;-72
2023/11/25 03:28:45;;;;;;;0.47;0.47;;;;;;;4.30;87.39;99722.44;4957092;28;20738;-72
2023/11/25 03:31:14;;;;;;;0.40;0.40;;;;;;;4.35;87.37;99715.00;4957640;28;20110;-72
2023/11/25 03:33:40;;;;;;;1.75;0.73;;;;;;;4.44;86.31;99714.84;4974615;28;20452;-72
2023/11/25 03:36:07;;;;;;;0.35;0.35;;;;;;;4.44;86.09;99712.19;4954745;28;20042;-72
2023/11/25 03:38:33;;;;;;;0.43;0.40;;;;;;;4.35;86.29;99698.22;4959502;28;20034;-72
2023/11/25 03:40:59;;;;;;;0.30;0.30;;;;;;;4.41;85.79;99694.22;4952372;28;20046;-72
2023/11/25 03:43:24;;;;;;;0.55;0.50;;;;;;;4.32;86.17;99698.88;4949334;28;20136;-72
2023/11/25 03:45:50;;;;;;;0.28;0.28;;;;;;;4.26;86.41;99701.00;4977110;28;20142;-72
2023/11/25 03:48:16;;;;;;;0.30;0.30;;;;;;;4.26;86.34;99694.91;4956784;28;20022;-72
2023/11/25 03:50:42;;;;;;;1.35;0.52;;;;;;;4.22;86.42;99683.38;4958564;28;20443;-72
2023/11/25 03:53:08;;;;;;;0.40;0.40;;;;;;;4.25;86.38;99693.38;4953434;28;20030;-72
2023/11/25 03:55:34;;;;;;;0.47;0.47;;;;;;;4.34;85.74;99681.47;4954255;28;20045;-72
2023/11/25 03:58:01;;;;;;;0.30;0.30;;;;;;;4.32;86.14;99689.00;4956395;28;20117;-71
2023/11/25 04:00:27;;;;;;;4.47;0.73;;;;;;;4.35;85.84;99682.25;4969659;28;20035;-72
2023/11/25 04:02:53;;;;;;;0.40;0.40;;;;;;;4.32;85.80;99683.69;4956484;28;20038;-72
2023/11/25 04:05:22;;;;;;;0.25;0.25;;;;;;;4.29;85.73;99683.59;4954886;28;20038;-72
2023/11/25 04:07:48;;;;;;;1.17;0.32;;;;;;;4.31;86.38;99684.03;4955263;28;20494;-72
2023/11/25 04:10:15;;;;;;;1.85;0.57;;;;;;;4.30;86.08;99677.91;4968110;28;20089;-72
2023/11/25 04:12:48;;;;;;;0.40;0.40;;;;;;;4.35;86.51;99684.91;4972351;28;20045;-72
2023/11/25 04:15:19;;;;;;;0.35;0.30;;;;;;;4.34;86.44;99675.34;4950891;28;20098;-72
2023/11/25 04:17:46;;;;;;;0.40;0.40;;;;;;;4.41;85.95;99681.66;4972726;28;20034;-72
2023/11/25 04:20:14;;;;;;;0.47;0.40;;;;;;;4.35;86.43;99727.53;4976852;28;20048;-72
2023/11/25 04:22:44;;;;;;;0.35;0.35;;;;;;;4.23;87.91;99735.53;4967394;28;20027;-72
2023/11/25 04:25:14;;;;;;;0.28;0.28;;;;;;;4.32;87.53;99730.84;4970751;28;20043;-72
2023/11/25 04:27:40;;;;;;;0.20;0.20;;;;;;;4.41;87.72;99708.31;4972262;28;20054;-72
2023/11/25 04:30:10;;;;;;;1.27;0.30;;;;;;;4.49;88.58;99694.06;4973362;28;20061;-72
2023/11/25 04:32:37;;;;;;;0.30;0.30;;;;;;;4.42;89.37;99690.44;4969593;28;20034;-71
2023/11/25 04:35:05;;;;;;;0.20;0.20;;;;;;;4.34;90.52;99681.47;4966837;28;20070;-71
2023/11/25 04:37:31;;;;;;;0.40;0.40;;;;;;;4.43;90.11;99674.09;4969283;28;20041;-72
2023/11/25 04:39:59;;;;;;;0.43;0.40;;;;;;;4.44;90.59;99664.22;4964273;28;20061;-72
2023/11/25 04:42:25;;;;;;;0.75;0.60;;;;;;;4.47;91.18;99653.66;4967894;28;20030;-71
2023/11/25 04:44:50;;;;;;;0.30;0.30;;;;;;;4.45;91.01;99645.22;4967944;28;20525;-71
2023/11/25 04:47:18;;;;;;;0.88;0.88;;;;;;;4.51;91.18;99643.88;4971931;28;20039;-72
2023/11/25 04:49:47;;;;;;;1.48;1.38;;;;;;;4.53;91.14;99630.97;4969908;28;20027;-72
2023/11/25 04:52:13;;;;;;;0.30;0.30;;;;;;;4.52;91.07;99634.78;4970108;28;20041;-72
2023/11/25 04:54:41;;;;;;;0.50;0.50;;;;;;;4.52;90.71;99626.78;4971399;28;20062;-72
2023/11/25 04:57:09;;;;;;;0.32;0.32;;;;;;;4.48;91.03;99633.13;4987317;28;20405;-72
2023/11/25 04:59:35;;;;;;;0.20;0.20;;;;;;;4.47;90.85;99619.00;4969774;28;20027;-71
2023/11/25 05:02:02;;;;;;;0.20;0.20;;;;;;;4.45;91.29;99601.81;4953146;28;20097;-72
2023/11/25 05:04:27;;;;;;;0.63;0.57;;;;;;;4.48;91.61;99609.13;4970309;28;20588;-72
2023/11/25 05:06:53;;;;;;;0.20;0.20;;;;;;;4.50;91.85;99604.25;4970737;28;20129;-72
2023/11/25 05:09:18;;;;;;;1.02;0.65;;;;;;;4.43;91.86;99604.06;4972059;28;20400;-72
2023/11/25 05:11:47;;;;;;;0.57;0.57;;;;;;;4.42;92.27;99602.50;4956036;28;20042;-71
2023/11/25 05:14:13;;;;;;;0.28;0.28;;;;;;;4.50;91.85;99596.25;4970100;28;20065;-72
2023/11/25 05:16:39;;;;;;;2.40;0.80;;;;;;;4.49;92.51;99592.78;4972202;28;20502;-71
2023/11/25 05:19:04;;;;;;;0.30;0.30;;;;;;;4.47;92.20;99596.94;4958437;28;20034;-72
2023/11/25 05:21:30;;;;;;;0.30;0.30;;;;;;;4.52;92.19;99599.34;4964896;28;20166;-72
2023/11/25 05:23:56;;;;;;;0.35;0.35;;;;;;;4.50;92.61;99599.69;4954087;28;20122;-72
2023/11/25 05:26:24;;;;;;;0.60;0.32;;;;;;;4.60;92.60;99601.09;4974103;28;20038;-72
2023/11/25 05:28:50;;;;;;;0.22;0.22;;;;;;;4.47;92.34;99610.25;4953594;28;20054;-71
2023/11/25 05:31:15;;;;;;;0.73;0.35;;;;;;;4.47;93.45;99639.56;4966098;28;20113;-72
2023/11/25 05:33:41;;;;;;;0.35;0.35;;;;;;;4.28;94.53;99642.84;4952817;28;20041;-72
2023/11/25 05:36:07;;;;;;;0.40;0.40;;;;;;;4.38;94.30;99638.91;4963157;28;20038;-71
2023/11/25 05:38:34;;;;;;;0.45;0.45;;;;;;;4.45;94.46;99633.81;4950712;28;20032;-71
2023/11/25 05:40:59;;;;;;;0.35;0.35;;;;;;;4.32;95.78;99625.06;4970365;28;20042;-71
2023/11/25 05:43:25;;;;;;;0.20;0.20;;;;;;;4.42;95.49;99626.47;4953608;28;20502;-71
2023/11/25 05:45:51;;;;;;;0.68;0.40;;;;;;;4.31;96.67;99628.84;4971277;28;20038;-68
2023/11/25 05:48:18;;;;;;;2.40;0.95;;;;;;;4.45;97.05;99633.81;4952104;28;20126;-71
2023/11/25 05:50:46;;;;;;;0.20;0.20;;;;;;;4.54;96.52;99634.44;4971254;28;20054;-71
2023/11/25 05:53:12;;;;;;;0.28;0.28;;;;;;;4.50;96.84;99621.00;4954535;28;20038;-71
2023/11/25 05:55:37;;;;;;;0.25;0.25;;;;;;;4.61;96.32;99615.94;4970374;28;20062;-71
2023/11/25 05:58:02;;;;;;;0.30;0.30;;;;;;;4.69;97.15;99624.91;4962984;28;20042;-70
2023/11/25 06:00:29;;;;;;;0.38;0.38;;;;;;;4.77;96.95;99611.44;4973221;28;20410;-71
2023/11/25 06:02:55;;;;;;;3.92;0.55;;;;;;;4.81;96.43;99611.53;4939847;28;20035;-71
2023/11/25 06:05:21;;;;;;;0.30;0.30;;;;;;;4.86;96.17;99601.38;4948570;28;20031;-71
2023/11/25 06:07:47;;;;;;;3.25;0.68;;;;;;;4.90;96.04;99607.56;4966868;28;20026;-71
2023/11/25 06:10:13;;;;;;;5.97;0.65;;;;;;;4.90;95.48;99607.56;4968402;28;20045;-71
2023/11/25 06:12:38;;;;;;;0.40;0.40;;;;;;;4.86;96.05;99609.38;4971284;28;20034;-70
2023/11/25 06:15:05;;;;;;;2.65;0.45;;;;;;;4.95;95.55;99609.22;4972151;28;20490;-71
2023/11/25 06:17:32;;;;;;;0.20;0.20;;;;;;;4.87;96.33;99612.81;4973385;28;20490;-71
2023/11/25 06:19:57;;;;;;;0.40;0.40;;;;;;;4.85;96.40;99612.41;4972717;28;20030;-71
2023/11/25 06:22:23;;;;;;;0.50;0.50;;;;;;;4.91;95.85;99605.69;4975815;28;20448;-71
2023/11/25 06:24:48;;;;;;;0.40;0.40;;;;;;;4.87;96.38;99620.81;4978165;28;20038;-71
2023/11/25 06:27:14;;;;;;;1.13;0.43;;;;;;;4.83;96.85;99617.28;4972900;28;20430;-71
2023/11/25 06:29:40;;;;;;;0.30;0.30;;;;;;;4.89;97.26;99608.72;4975485;28;20027;-71
2023/11/25 06:32:09;;;;;;;3.70;0.75;;;;;;;4.98;96.76;99609.31;4972177;28;20602;-70
2023/11/25 06:34:34;;;;;;;0.43;0.40;;;;;;;4.96;96.89;99606.22;4972735;28;20038;-71
2023/11/25 06:37:00;;;;;;;0.60;0.60;;;;;;;5.04;96.27;99607.16;4975171;28;20107;-71
2023/11/25 06:39:30;;;;;;;2.40;0.82;;;;;;;5.09;95.72;99610.34;4971722;28;20680;-71
2023/11/25 06:41:55;;;;;;;4.38;1.42;;;;;;;5.00;97.12;99600.97;4979477;28;20042;-71
2023/11/25 06:44:20;;;;;;;0.20;0.20;;;;;;;4.99;97.75;99604.75;4956594;28;20034;-71
2023/11/25 06:46:47;;;;;;;0.30;0.30;;;;;;;5.16;96.56;99602.53;4971658;28;20026;-71
2023/11/25 06:49:13;;;;;;;0.52;0.52;;;;;;;5.05;97.20;99604.16;4970215;28;20038;-71
2023/11/25 06:51:42;;;;;;;0.50;0.50;;;;;;;5.07;97.52;99601.91;4970986;28;20033;-71
2023/11/25 06:54:08;;;;;;;0.50;0.50;;;;;;;5.08;97.74;99606.16;4955545;28;20509;-71
2023/11/25 06:56:40;;;;;;;0.60;0.60;;;;;;;5.06;97.97;99610.25;4965570;28;20109;-70
2023/11/25 06:59:05;;;;;;;;;;;;;;;5.18;97.95;99616.31;4972474;28;20034;-71
2023/11/25 07:01:34;;;;;;;0.68;0.63;;;;;;;5.13;96.78;99608.53;4971798;28;20377;-71
2023/11/25 07:04:04;;;;;;;0.50;0.50;;;;;;;5.20;97.16;99603.41;4976755;28;20065;-69
2023/11/25 07:06:29;;;;;;;2.45;0.77;;;;;;;5.24;96.78;99606.94;4967635;28;20497;-71
2023/11/25 07:08:59;;;;;;;1.70;0.70;;;;;;;5.25;96.89;99610.34;4968707;28;20026;-71
2023/11/25 07:11:26;;;;;;;0.40;0.40;;;;;;;5.28;96.98;99605.09;4970708;28;20030;-71
2023/11/25 07:13:54;;;;;;;3.17;0.73;;;;;;;5.13;96.89;99610.47;4975676;28;20034;-71
2023/11/25 07:16:19;;;;;;;1.25;0.95;;;;;;;5.20;97.68;99599.94;4972839;28;20039;-71
2023/11/25 07:18:45;;;;;;;0.98;0.60;;;;;;;5.27;97.33;99606.22;4977082;28;20134;-71
2023/11/25 07:21:14;;;;;;;0.50;0.50;;;;;;;5.24;97.76;99596.25;4971481;28;20066;-70
2023/11/25 07:23:42;;;;;;;0.40;0.40;;;;;;;5.28;97.67;99593.66;4972975;28;20023;-70
2023/11/25 07:26:14;;;;;;;0.55;0.55;;;;;;;5.29;96.99;99597.88;4953532;28;20125;-71
2023/11/25 07:28:42;;;;;;;0.60;0.60;;;;;;;5.36;96.73;99590.06;4970605;28;20107;-71
2023/11/25 07:31:09;;;;;;;0.63;0.63;;;;;;;5.38;96.53;99579.81;4952692;28;20028;-71
2023/11/25 07:33:35;;;;;;;5.85;0.77;;;;;;;5.34;97.49;99590.38;4957049;28;20039;-71
2023/11/25 07:36:00;;;;;;;0.43;0.43;;;;;;;5.27;98.20;99595.56;4975696;28;20041;-71
2023/11/25 07:38:25;;;;;;;0.73;0.60;;;;;;;5.28;98.01;99601.66;4941411;28;20038;-70
2023/11/25 07:40:51;;;;;;;0.70;0.70;;;;;;;5.35;97.94;99594.59;4971116;28;20047;-71
2023/11/25 07:43:16;;;;;;;0.85;0.50;;;;;;;5.42;97.71;99588.63;4949726;28;20101;-71
2023/11/25 07:45:44;;;;;;;3.88;0.45;;;;;;;5.47;97.40;99583.06;4967158;28;20023;-71
2023/11/25 07:48:09;;;;;;;0.45;0.45;;;;;;;5.48;97.74;99590.72;4974198;28;20037;-71
2023/11/25 07:50:35;;;;;;;0.50;0.50;;;;;;;5.53;97.99;99588.91;4974552;28;20019;-71
2023/11/25 07:53:01;;;;;;;0.75;0.75;;;;;;;5.49;98.25;99599.50;4973718;28;20542;-71
2023/11/25 07:55:27;;;;;;;0.47;0.47;;;;;;;5.47;98.29;99599.06;4956012;28;20336;-71
2023/11/25 07:57:52;;;;;;;8.95;0.70;;;;;;;5.53;98.18;99614.47;4941443;28;20039;-71
2023/11/25 08:00:19;;;;;;;0.80;0.80;;;;;;;5.48;98.62;99617.41;4969738;28;20034;-71
2023/11/25 08:02:49;;;;;;;1.25;0.90;;;;;;;5.56;98.39;99607.66;4959049;28;20035;-72
2023/11/25 08:05:21;;;;;;;0.80;0.50;;;;;;;5.57;98.52;99613.78;4968123;28;20859;-71
2023/11/25 08:07:51;;;;;;;0.60;0.60;;;;;;;5.58;99.06;99610.75;4972948;28;20057;-72
2023/11/25 08:10:18;;;;;;;2.10;0.45;;;;;;;5.67;97.47;99623.94;4964624;28;20585;-72
2023/11/25 08:12:44;;;;;;;0.95;0.88;;;;;;;5.67;98.36;99618.59;4974692;28;20084;-72
2023/11/25 08:15:10;;;;;;;0.90;0.70;;;;;;;5.71;98.03;99619.44;4972353;28;20054;-72
2023/11/25 08:17:36;;;;;;;0.68;0.68;;;;;;;5.64;98.40;99628.06;4973846;28;20046;-71
2023/11/25 08:20:05;;;;;;;0.80;0.80;;;;;;;5.65;98.45;99621.63;4956629;28;20042;-72
2023/11/25 08:22:31;;;;;;;0.43;0.43;;;;;;;5.68;98.01;99628.13;4950302;28;20494;-71
2023/11/25 08:24:57;;;;;;;0.77;0.77;;;;;;;5.70;98.28;99639.25;4954055;28;20054;-72
2023/11/25 08:27:22;;;;;;;3.55;0.80;;;;;;;5.75;97.44;99631.00;4953355;28;20473;-72
2023/11/25 08:29:48;;;;;;;0.73;0.73;;;;;;;5.76;97.93;99640.53;4974282;28;20109;-72
2023/11/25 08:32:13;;;;;;;1.65;0.98;;;;;;;5.74;98.52;99630.22;4977361;28;20078;-72
2023/11/25 08:34:39;;;;;;;0.50;0.40;;;;;;;5.80;98.71;99646.75;4977091;28;20033;-72
2023/11/25 08:37:05;;;;;;;0.43;0.43;;;;;;;5.86;98.46;99642.72;4974663;28;20027;-72
2023/11/25 08:39:32;;;;;;;1.10;0.77;;;;;;;5.92;98.82;99646.66;4958299;28;20070;-72
2023/11/25 08:41:59;;;;;;;0.77;0.77;;;;;;;5.96;98.79;99642.94;4969307;28;20378;-71
2023/11/25 08:44:26;;;;;;;0.73;0.70;;;;;;;5.96;98.21;99642.19;4958089;28;20524;-71
2023/11/25 08:46:53;;;;;;;0.35;0.35;;;;;;;6.00;98.42;99651.03;4966969;28;20433;-69
2023/11/25 08:49:21;;;;;;;1.95;0.95;;;;;;;6.02;98.51;99648.81;4956968;28;20045;-72
2023/11/25 08:51:50;;;;;;;1.17;1.05;;;;;;;6.06;98.44;99636.25;4954449;28;20031;-72
2023/11/25 08:54:20;;;;;;;0.40;0.40;;;;;;;6.10;98.27;99645.13;4967427;28;20145;-72
2023/11/25 08:56:46;;;;;;;0.65;0.65;;;;;;;6.08;98.41;99648.16;4954452;28;20043;-72
2023/11/25 08:59:17;;;;;;;0.60;0.60;;;;;;;6.14;98.56;99648.66;4975418;28;20142;-72
2023/11/25 09:01:47;;;;;;;2.20;0.93;;;;;;;6.20;98.16;99652.59;4973507;28;20501;-70
2023/11/25 09:04:19;;;;;;;1.52;1.38;;;;;;;6.15;98.75;99650.22;4971207;28;20041;-71
2023/11/25 09:06:47;;;;;;;0.70;0.70;;;;;;;6.16;99.16;99657.09;4978266;28;20104;-71
2023/11/25 09:09:15;;;;;;;0.40;0.40;;;;;;;6.19;98.45;99651.06;4964239;28;20076;-72
2023/11/25 09:11:41;;;;;;;1.88;0.95;;;;;;;6.22;98.85;99664.50;4974746;28;20051;-71
2023/11/25 09:14:07;;;;;;;1.00;0.95;;;;;;;6.28;98.25;99660.44;4968500;28;20054;-72
2023/11/25 09:16:33;;;;;;;0.60;0.60;;;;;;;6.28;98.98;99668.47;4951688;28;20170;-72
2023/11/25 09:19:00;;;;;;;0.98;0.98;;;;;;;6.23;99.27;99668.72;4951505;28;20031;-72
2023/11/25 09:21:26;;;;;;;0.40;0.40;;;;;;;6.30;99.59;99681.47;4964399;28;20035;-72
2023/11/25 09:23:52;;;;;;;1.35;0.65;;;;;;;6.35;100.00;99681.19;4952982;28;20116;-72
2023/11/25 09:26:20;;;;;;;2.22;0.73;;;;;;;6.47;100.00;99682.94;4943854;28;20034;-72
2023/11/25 09:28:45;;;;;;;0.60;0.60;;;;;;;6.54;100.00;99678.56;4937198;28;20117;-73
2023/11/25 09:31:11;;;;;;;1.30;0.55;;;;;;;6.63;100.00;99675.66;4971444;28;20117;-73
2023/11/25 09:33:36;;;;;;;1.13;0.60;;;;;;;6.73;100.00;99680.44;4952052;28;20034;-73
2023/11/25 09:36:02;;;;;;;0.40;0.40;;;;;;;6.62;100.00;99684.81;4948277;28;20106;-72
2023/11/25 09:38:27;;;;;;;0.35;0.35;;;;;;;6.74;100.00;99690.00;4936624;28;20516;-72
2023/11/25 09:40:53;;;;;;;0.50;0.50;;;;;;;6.74;100.00;99685.44;4967280;28;20037;-73
2023/11/25 09:43:21;;;;;;;0.65;0.60;;;;;;;6.87;99.75;99691.41;4949769;28;20027;-72
2023/11/25 09:45:51;;;;;;;2.17;0.75;;;;;;;6.75;100.00;99700.38;4947464;28;20050;-73
2023/11/25 09:48:17;;;;;;;0.65;0.47;;;;;;;6.67;100.00;99703.25;4951528;28;20038;-72
2023/11/25 09:50:43;;;;;;;0.52;0.50;;;;;;;6.61;100.00;99713.44;4953662;28;20034;-72
2023/11/25 09:53:25;;;;;;;0.40;0.40;;;;;;;6.72;100.00;99708.31;4973828;28;20097;-73
2023/11/25 09:56:03;;;;;;;0.55;0.50;;;;;;;6.90;100.00;99702.19;4950889;28;20169;-72
2023/11/25 09:58:34;;;;;;;0.50;0.50;;;;;;;7.18;100.00;99697.34;4969606;28;20035;-72
2023/11/25 10:01:01;;;;;;;0.47;0.47;;;;;;;7.34;100.00;99694.56;4970541;28;20038;-72
2023/11/25 10:03:37;;;;;;;0.50;0.40;;;;;;;7.42;99.97;99698.13;4966472;28;20398;-73
2023/11/25 10:06:03;;;;;;;1.27;0.60;;;;;;;7.34;98.47;99699.16;4972899;28;20050;-73
2023/11/25 10:08:29;;;;;;;0.32;0.32;;;;;;;7.38;98.39;99703.44;4944908;28;20046;-73
2023/11/25 10:11:08;;;;;;;1.23;0.28;;;;;;;7.47;98.07;99705.91;4965299;28;20049;-72
2023/11/25 10:13:34;;;;;;;0.50;0.50;;;;;;;7.42;97.36;99695.47;4965852;28;20149;-72
2023/11/25 10:16:01;;;;;;;0.40;0.40;;;;;;;7.41;96.85;99699.28;4969099;28;20047;-72
2023/11/25 10:18:26;;;;;;;0.82;0.30;;;;;;;7.40;97.33;99703.06;4975296;28;20034;-73
2023/11/25 10:20:57;;;;;;;0.68;0.68;;;;;;;7.13;97.50;99707.56;4969828;28;20039;-72
2023/11/25 10:23:26;;;;;;;0.60;0.43;;;;;;;7.14;97.81;99706.47;4967931;28;20062;-73
2023/11/25 10:25:53;;;;;;;0.20;0.20;;;;;;;7.19;97.61;99706.94;4970511;28;20077;-73
2023/11/25 10:28:25;;;;;;;2.25;0.80;;;;;;;7.24;97.66;99708.53;4965675;28;20462;-73
2023/11/25 10:30:55;;;;;;;0.73;0.50;;;;;;;7.35;97.76;99720.22;4968434;28;20050;-73
2023/11/25 10:33:24;;;;;;;0.98;0.63;;;;;;;7.48;97.00;99723.50;4960309;28;20073;-73
2023/11/25 10:35:54;;;;;;;0.38;0.38;;;;;;;7.56;97.10;99719.81;4952491;28;20421;-72
2023/11/25 10:38:27;;;;;;;0.30;0.30;;;;;;;7.49;96.66;99709.00;4965583;28;20051;-72
2023/11/25 10:41:00;;;;;;;0.40;0.38;;;;;;;7.51;97.11;99720.13;4976319;28;20089;-73
2023/11/25 10:43:26;;;;;;;0.30;0.30;;;;;;;7.45;97.48;99724.22;4971745;28;20058;-70
2023/11/25 10:46:08;;;;;;;3.55;0.80;;;;;;;7.40;97.13;99721.81;4954368;28;20119;-73
2023/11/25 10:48:37;;;;;;;0.80;0.30;;;;;;;7.29;97.52;99718.97;4967741;28;20046;-72
2023/11/25 10:51:03;;;;;;;0.20;0.20;;;;;;;7.37;97.41;99720.66;4956699;28;20514;-72
2023/11/25 10:53:30;;;;;;;0.60;0.60;;;;;;;7.44;97.17;99719.97;4969900;28;20383;-72
2023/11/25 10:55:58;;;;;;;0.70;0.32;;;;;;;7.32;97.57;99732.41;4953949;28;20413;-73
2023/11/25 10:58:29;;;;;;;5.68;0.50;;;;;;;7.40;97.71;99735.22;4968764;28;20027;-73
2023/11/25 11:00:58;;;;;;;3.40;0.50;;;;;;;7.28;98.43;99728.91;4963105;28;20058;-72
2023/11/25 11:03:41;;;;;;;0.40;0.40;;;;;;;7.28;98.27;99728.13;4967249;28;20039;-72
2023/11/25 11:06:14;;;;;;;0.30;0.30;;;;;;;7.38;99.25;99729.44;4971437;28;20058;-72
2023/11/25 11:08:46;;;;;;;0.28;0.28;;;;;;;7.40;98.35;99722.59;4972020;28;20030;-72
2023/11/25 11:11:16;;;;;;;0.50;0.40;;;;;;;7.46;98.39;99736.47;4977553;28;20054;-73
2023/11/25 11:13:47;;;;;;;0.40;0.40;;;;;;;7.41;97.95;99731.41;4977328;28;20030;-73
2023/11/25 11:16:17;;;;;;;0.30;0.30;;;;;;;7.54;97.93;99746.19;4974398;28;20097;-72
2023/11/25 11:18:44;;;;;;;1.00;0.40;;;;;;;7.49;98.04;99741.13;4977174;28;20042;-72
2023/11/25 11:21:11;;;;;;;4.45;1.70;;;;;;;7.50;97.38;99758.72;4971723;28;20046;-73
2023/11/25 11:23:37;;;;;;;0.57;0.57;;;;;;;7.62;97.65;99750.53;4968406;28;20035;-73
2023/11/25 11:26:17;;;;;;;0.35;0.35;;;;;;;7.58;97.41;99755.84;4972403;28;20456;-72
2023/11/25 11:28:56;;;;;;;0.35;0.35;;;;;;;7.65;97.24;99755.94;4977805;28;20502;-71
2023/11/25 11:31:57;;;;;;;0.95;0.60;;;;;;;7.62;96.63;99753.22;4980085;28;20549;-73
2023/11/25 11:34:31;;;;;;;1.52;0.95;;;;;;;7.52;96.60;99737.72;4979302;28;20390;-72
2023/11/25 11:36:56;;;;;;;1.27;0.73;;;;;;;7.58;97.24;99744.34;4974638;28;20039;-72
2023/11/25 11:39:38;;;;;;;0.35;0.35;;;;;;;7.68;97.09;99747.22;4959172;28;20030;-73
2023/11/25 11:42:25;;;;;;;0.75;0.40;;;;;;;7.67;96.56;99755.59;4970950;28;20050;-72